Time;durP1;ratioP1;P1;durP2;ratioP2;P2;SDS_P1;SDS_P2;PMS_P1;PMS_P2;Temp;Humidity;BMP_temperature;BMP_pressure;BME280_temperature;BME280_humidity;BME280_pressure;Samples;Min_cycle;Max_cycle;Signal;HPM_P1;HPM_P2
2022/03/24 00:02:12;;;;;;;;;;;;;;;;;;4964143;28;19922;-59
2022/03/24 00:04:38;;;;;;;;;;;;;;;;;;4979905;28;20623;-59
2022/03/24 00:07:03;;;;;;;;;;;;;;;;;;4985730;28;20023;-59
2022/03/24 00:09:29;;;;;;;;;;;;;;;;;;4965022;28;19961;-59
2022/03/24 00:11:57;;;;;;;;;;;;;;;;;;4965449;28;19945;-59
2022/03/24 00:14:24;;;;;;;;;;;;;;;;;;4985011;28;19981;-59
2022/03/24 00:16:49;;;;;;;;;;;;;;;;;;4985216;28;19987;-59
2022/03/24 00:19:19;;;;;;;;;;;;;;;;;;4983899;28;19914;-59
2022/03/24 00:21:44;;;;;;;;;;;;;;;;;;4985598;28;20011;-58
2022/03/24 00:24:12;;;;;;;;;;;;;;;;;;4968365;28;19913;-59
2022/03/24 00:26:40;;;;;;;;;;;;;;;;;;4982907;28;19932;-59
2022/03/24 00:29:08;;;;;;;;;;;;;;;;;;4980766;28;19914;-58
2022/03/24 00:31:35;;;;;;;;;;;;;;;;;;4970336;28;19918;-59
2022/03/24 00:34:05;;;;;;;;;;;;;;;;;;4983439;28;19913;-59
2022/03/24 00:36:32;;;;;;;;;;;;;;;;;;4986742;28;19921;-59
2022/03/24 00:39:00;;;;;;;;;;;;;;;;;;4985183;28;19920;-59
2022/03/24 00:41:28;;;;;;;;;;;;;;;;;;4980313;28;19920;-59
2022/03/24 00:43:53;;;;;;;;;;;;;;;;;;4983423;28;19917;-59
2022/03/24 00:46:23;;;;;;;;;;;;;;;;;;4981684;28;19913;-60
2022/03/24 00:48:53;;;;;;;;;;;;;;;;;;4983018;28;19930;-60
2022/03/24 00:51:21;;;;;;;;;;;;;;;;;;4984745;28;19924;-59
2022/03/24 00:53:49;;;;;;;;;;;;;;;;;;4983719;28;19917;-60
2022/03/24 00:56:16;;;;;;;;;;;;;;;;;;4983133;28;19928;-59
2022/03/24 00:58:42;;;;;;;;;;;;;;;;;;4983600;28;19917;-59
2022/03/24 01:01:11;;;;;;;;;;;;;;;;;;4985374;28;19925;-59
2022/03/24 01:03:39;;;;;;;;;;;;;;;;;;4981454;28;19944;-60
2022/03/24 01:06:06;;;;;;;;;;;;;;;;;;4967452;28;20840;-60
2022/03/24 01:08:31;;;;;;;;;;;;;;;;;;4984819;28;20665;-59
2022/03/24 01:10:57;;;;;;;;;;;;;;;;;;4986709;28;19929;-59
2022/03/24 01:13:22;;;;;;;;;;;;;;;;;;4986408;28;19917;-60
2022/03/24 01:15:47;;;;;;;;;;;;;;;;;;4987599;28;20052;-59
2022/03/24 01:18:14;;;;;;;;;;;;;;;;;;4969635;28;19917;-60
2022/03/24 01:20:41;;;;;;;;;;;;;;;;;;4986593;28;19917;-60
2022/03/24 01:23:07;;;;;;;;;;;;;;;;;;4987436;28;19924;-59
2022/03/24 01:25:37;;;;;;;;;;;;;;;;;;4988736;28;22054;-59
2022/03/24 01:28:03;;;;;;;;;;;;;;;;;;4986842;28;19917;-59
2022/03/24 01:30:29;;;;;;;;;;;;;;;;;;4984994;28;20301;-59
2022/03/24 01:32:56;;;;;;;;;;;;;;;;;;4986408;28;20380;-59
2022/03/24 01:35:23;;;;;;;;;;;;;;;;;;4985147;28;20035;-59
2022/03/24 01:37:48;;;;;;;;;;;;;;;;;;4989249;28;19917;-59
2022/03/24 01:40:16;;;;;;;;;;;;;;;;;;4985040;28;19913;-59
2022/03/24 01:42:44;;;;;;;;;;;;;;;;;;4987105;28;19979;-59
2022/03/24 01:45:10;;;;;;;;;;;;;;;;;;4986388;28;19921;-59
2022/03/24 01:47:35;;;;;;;;;;;;;;;;;;4985682;28;20845;-59
2022/03/24 01:50:00;;;;;;;;;;;;;;;;;;4985717;28;20222;-59
2022/03/24 01:52:25;;;;;;;;;;;;;;;;;;4986250;28;19936;-59
2022/03/24 01:54:51;;;;;;;;;;;;;;;;;;4987176;28;19925;-59
2022/03/24 01:57:21;;;;;;;;;;;;;;;;;;4989205;28;19913;-59
2022/03/24 01:59:47;;;;;;;;;;;;;;;;;;4969047;28;20365;-59
2022/03/24 02:02:13;;;;;;;;;;;;;;;;;;4985988;28;20012;-59
2022/03/24 02:04:39;;;;;;;;;;;;;;;;;;4983817;28;19959;-60
2022/03/24 02:07:06;;;;;;;;;;;;;;;;;;4987810;28;20016;-60
2022/03/24 02:09:37;;;;;;;;;;;;;;;;;;4968796;28;19941;-59
2022/03/24 02:12:02;;;;;;;;;;;;;;;;;;4985650;28;19917;-59
2022/03/24 02:14:30;;;;;;;;;;;;;;;;;;4984593;28;19971;-60
2022/03/24 02:16:55;;;;;;;;;;;;;;;;;;4984421;28;19913;-60
2022/03/24 02:19:23;;;;;;;;;;;;;;;;;;4982987;28;19928;-59
2022/03/24 02:21:51;;;;;;;;;;;;;;;;;;4968430;28;20440;-60
2022/03/24 02:24:26;;;;;;;;;;;;;;;;;;4989048;28;19917;-59
2022/03/24 02:26:54;;;;;;;;;;;;;;;;;;4988505;28;19926;-58
2022/03/24 02:29:25;;;;;;;;;;;;;;;;;;4987277;28;20600;-59
2022/03/24 02:31:50;;;;;;;;;;;;;;;;;;4987612;28;19956;-59
2022/03/24 02:36:59;;;;;;;;;;;;;;;;;;4987602;28;19917;-59
2022/03/24 02:39:25;;;;;;;;;;;;;;;;;;4986475;28;20306;-60
2022/03/24 02:41:53;;;;;;;;;;;;;;;;;;4979414;28;19987;-60
2022/03/24 02:44:19;;;;;;;;;;;;;;;;;;4983849;28;19922;-60
2022/03/24 02:46:47;;;;;;;;;;;;;;;;;;4985057;28;19928;-60
2022/03/24 02:49:13;;;;;;;;;;;;;;;;;;4969375;28;20380;-60
2022/03/24 02:51:43;;;;;;;;;;;;;;;;;;4987099;28;19949;-60
2022/03/24 02:54:09;;;;;;;;;;;;;;;;;;4987889;28;20016;-60
2022/03/24 02:56:36;;;;;;;;;;;;;;;;;;4986019;28;20739;-60
2022/03/24 02:59:04;;;;;;;;;;;;;;;;;;4986057;28;19967;-60
2022/03/24 03:01:40;;;;;;;;;;;;;;;;;;5002481;28;19918;-60
2022/03/24 03:04:06;;;;;;;;;;;;;;;;;;4986430;28;19920;-60
2022/03/24 03:06:33;;;;;;;;;;;;;;;;;;4969531;28;19953;-60
2022/03/24 03:08:59;;;;;;;;;;;;;;;;;;4986172;28;19956;-60
2022/03/24 03:11:24;;;;;;;;;;;;;;;;;;4986413;28;20242;-60
2022/03/24 03:13:52;;;;;;;;;;;;;;;;;;4984164;28;19917;-59
2022/03/24 03:16:18;;;;;;;;;;;;;;;;;;4983898;28;19920;-60
2022/03/24 03:18:44;;;;;;;;;;;;;;;;;;4984265;28;19917;-60
2022/03/24 03:21:09;;;;;;;;;;;;;;;;;;4982601;28;19913;-60
2022/03/24 03:23:38;;;;;;;;;;;;;;;;;;4985284;28;19917;-60
2022/03/24 03:26:04;;;;;;;;;;;;;;;;;;4985678;28;20012;-60
2022/03/24 03:28:30;;;;;;;;;;;;;;;;;;4983007;28;19971;-59
2022/03/24 03:31:00;;;;;;;;;;;;;;;;;;4986793;28;20012;-60
2022/03/24 03:33:25;;;;;;;;;;;;;;;;;;4970806;28;19940;-59
2022/03/24 03:35:51;;;;;;;;;;;;;;;;;;4985536;28;19925;-60
2022/03/24 03:38:18;;;;;;;;;;;;;;;;;;4984937;28;21840;-60
2022/03/24 03:40:43;;;;;;;;;;;;;;;;;;4986556;28;20890;-59
2022/03/24 03:43:11;;;;;;;;;;;;;;;;;;4985600;28;19963;-59
2022/03/24 03:45:37;;;;;;;;;;;;;;;;;;4984471;28;20954;-59
2022/03/24 03:48:03;;;;;;;;;;;;;;;;;;4985745;28;19922;-59
2022/03/24 03:50:31;;;;;;;;;;;;;;;;;;4985366;28;19952;-59
2022/03/24 03:52:56;;;;;;;;;;;;;;;;;;4999950;28;19927;-59
2022/03/24 03:55:22;;;;;;;;;;;;;;;;;;4982457;28;19961;-59
2022/03/24 03:57:47;;;;;;;;;;;;;;;;;;4987175;28;19948;-59
2022/03/24 04:03:04;;;;;;;;;;;;;;;;;;4985000;28;19918;-60
2022/03/24 04:05:31;;;;;;;;;;;;;;;;;;4985834;28;20348;-59
2022/03/24 04:08:00;;;;;;;;;;;;;;;;;;4984644;28;19927;-60
2022/03/24 04:10:27;;;;;;;;;;;;;;;;;;4966880;28;20809;-59
2022/03/24 04:12:52;;;;;;;;;;;;;;;;;;4985612;28;19914;-58
2022/03/24 04:15:18;;;;;;;;;;;;;;;;;;4981528;28;20648;-59
2022/03/24 04:17:45;;;;;;;;;;;;;;;;;;4982890;28;20467;-59
2022/03/24 04:20:13;;;;;;;;;;;;;;;;;;4984834;28;20541;-59
2022/03/24 04:22:39;;;;;;;;;;;;;;;;;;4981713;28;19948;-59
2022/03/24 04:25:05;;;;;;;;;;;;;;;;;;4984710;28;20776;-59
2022/03/24 04:27:30;;;;;;;;;;;;;;;;;;4984352;28;19944;-59
2022/03/24 04:29:55;;;;;;;;;;;;;;;;;;4983755;28;20391;-59
2022/03/24 04:32:23;;;;;;;;;;;;;;;;;;4985549;28;19913;-59
2022/03/24 04:34:49;;;;;;;;;;;;;;;;;;4982365;28;20439;-59
2022/03/24 04:37:16;;;;;;;;;;;;;;;;;;4984042;28;19917;-59
2022/03/24 04:39:44;;;;;;;;;;;;;;;;;;4983756;28;19918;-59
2022/03/24 04:42:12;;;;;;;;;;;;;;;;;;4981689;28;20016;-59
2022/03/24 04:44:39;;;;;;;;;;;;;;;;;;4982333;28;19928;-59
2022/03/24 04:47:05;;;;;;;;;;;;;;;;;;4983152;28;20712;-60
2022/03/24 04:49:33;;;;;;;;;;;;;;;;;;4981878;28;20407;-59
2022/03/24 04:52:03;;;;;;;;;;;;;;;;;;4986798;28;21668;-59
2022/03/24 04:54:31;;;;;;;;;;;;;;;;;;4983891;28;19913;-59
2022/03/24 04:56:59;;;;;;;;;;;;;;;;;;4984192;28;19920;-60
2022/03/24 04:59:25;;;;;;;;;;;;;;;;;;4981945;28;20109;-60
2022/03/24 05:01:51;;;;;;;;;;;;;;;;;;4985271;28;19925;-60
2022/03/24 05:04:17;;;;;;;;;;;;;;;;;;4983862;28;20085;-60
2022/03/24 05:06:42;;;;;;;;;;;;;;;;;;4983656;28;20310;-60
2022/03/24 05:09:12;;;;;;;;;;;;;;;;;;4982715;28;19924;-59
2022/03/24 05:11:40;;;;;;;;;;;;;;;;;;4983912;28;21809;-59
2022/03/24 05:14:05;;;;;;;;;;;;;;;;;;4982184;28;19968;-59
2022/03/24 05:16:33;;;;;;;;;;;;;;;;;;4984175;28;19995;-60
2022/03/24 05:18:58;;;;;;;;;;;;;;;;;;4983647;28;20332;-59
2022/03/24 05:21:24;;;;;;;;;;;;;;;;;;4984164;28;20700;-59
2022/03/24 05:23:51;;;;;;;;;;;;;;;;;;4983252;28;20313;-60
2022/03/24 05:26:24;;;;;;;;;;;;;;;;;;4984002;28;19948;-60
2022/03/24 05:28:49;;;;;;;;;;;;;;;;;;4981201;28;20380;-60
2022/03/24 05:31:14;;;;;;;;;;;;;;;;;;4982588;28;19917;-59
2022/03/24 05:33:43;;;;;;;;;;;;;;;;;;4981745;28;19929;-60
2022/03/24 05:36:10;;;;;;;;;;;;;;;;;;4982806;28;20001;-59
2022/03/24 05:38:36;;;;;;;;;;;;;;;;;;4984107;28;19968;-59
2022/03/24 05:41:02;;;;;;;;;;;;;;;;;;4982624;28;19957;-60
2022/03/24 05:43:32;;;;;;;;;;;;;;;;;;4979754;28;19921;-60
2022/03/24 05:46:01;;;;;;;;;;;;;;;;;;4984403;28;19917;-59
2022/03/24 05:48:28;;;;;;;;;;;;;;;;;;4986046;28;19925;-60
2022/03/24 05:50:54;;;;;;;;;;;;;;;;;;4985980;28;19932;-59
2022/03/24 05:53:19;;;;;;;;;;;;;;;;;;4984129;28;19944;-60
2022/03/24 05:55:47;;;;;;;;;;;;;;;;;;4987027;28;19917;-59
2022/03/24 05:58:12;;;;;;;;;;;;;;;;;;4985532;28;20695;-60
2022/03/24 06:00:38;;;;;;;;;;;;;;;;;;4987835;28;19925;-60
2022/03/24 06:03:03;;;;;;;;;;;;;;;;;;4987191;28;19918;-60
2022/03/24 06:05:29;;;;;;;;;;;;;;;;;;4986984;28;20008;-59
2022/03/24 06:07:57;;;;;;;;;;;;;;;;;;4988375;28;19921;-59
2022/03/24 06:10:22;;;;;;;;;;;;;;;;;;4985256;28;19917;-59
2022/03/24 06:12:50;;;;;;;;;;;;;;;;;;4987586;28;19921;-59
2022/03/24 06:15:18;;;;;;;;;;;;;;;;;;4987447;28;19918;-60
2022/03/24 06:17:43;;;;;;;;;;;;;;;;;;4984668;28;19917;-60
2022/03/24 06:20:09;;;;;;;;;;;;;;;;;;4986127;28;20575;-60
2022/03/24 06:22:36;;;;;;;;;;;;;;;;;;4989045;28;21788;-59
2022/03/24 06:25:04;;;;;;;;;;;;;;;;;;4986803;28;20029;-60
2022/03/24 06:27:30;;;;;;;;;;;;;;;;;;4984853;28;20420;-59
2022/03/24 06:29:58;;;;;;;;;;;;;;;;;;4986375;28;20024;-60
2022/03/24 06:32:27;;;;;;;;;;;;;;;;;;4988348;28;20004;-60
2022/03/24 06:34:52;;;;;;;;;;;;;;;;;;4985666;28;19933;-61
2022/03/24 06:37:20;;;;;;;;;;;;;;;;;;4988062;28;19917;-59
2022/03/24 06:39:48;;;;;;;;;;;;;;;;;;4987672;28;19928;-60
2022/03/24 06:42:16;;;;;;;;;;;;;;;;;;4986586;28;20046;-59
2022/03/24 06:44:42;;;;;;;;;;;;;;;;;;4985484;28;19917;-59
2022/03/24 06:47:09;;;;;;;;;;;;;;;;;;4986331;28;19956;-60
2022/03/24 06:49:34;;;;;;;;;;;;;;;;;;4987221;28;19945;-58
2022/03/24 06:52:00;;;;;;;;;;;;;;;;;;4986914;28;21058;-58
2022/03/24 06:54:25;;;;;;;;;;;;;;;;;;4984504;28;19913;-58
2022/03/24 06:56:51;;;;;;;;;;;;;;;;;;4983936;28;19917;-58
2022/03/24 06:59:17;;;;;;;;;;;;;;;;;;4984704;28;20506;-59
2022/03/24 07:01:42;;;;;;;;;;;;;;;;;;4987729;28;20349;-59
2022/03/24 07:04:10;;;;;;;;;;;;;;;;;;4985998;28;20318;-59
2022/03/24 07:06:37;;;;;;;;;;;;;;;;;;4987208;28;19925;-60
2022/03/24 07:09:03;;;;;;;;;;;;;;;;;;4986594;28;19917;-59
2022/03/24 07:11:28;;;;;;;;;;;;;;;;;;4967566;28;19925;-59
2022/03/24 07:13:59;;;;;;;;;;;;;;;;;;4983759;28;19920;-59
2022/03/24 07:16:26;;;;;;;;;;;;;;;;;;4985610;28;19997;-59
2022/03/24 07:18:52;;;;;;;;;;;;;;;;;;4984221;28;19970;-59
2022/03/24 07:21:19;;;;;;;;;;;;;;;;;;4984661;28;19957;-59
2022/03/24 07:23:49;;;;;;;;;;;;;;;;;;4985525;28;19917;-60
2022/03/24 07:26:14;;;;;;;;;;;;;;;;;;4967747;28;20036;-60
2022/03/24 07:28:44;;;;;;;;;;;;;;;;;;4985393;28;19921;-60
2022/03/24 07:31:12;;;;;;;;;;;;;;;;;;4987082;28;19913;-59
2022/03/24 07:33:38;;;;;;;;;;;;;;;;;;4982651;28;20007;-60
2022/03/24 07:36:06;;;;;;;;;;;;;;;;;;4986073;28;21560;-60
2022/03/24 07:38:32;;;;;;;;;;;;;;;;;;4985233;28;19936;-60
2022/03/24 07:40:58;;;;;;;;;;;;;;;;;;5000675;28;19921;-60
2022/03/24 07:43:26;;;;;;;;;;;;;;;;;;4982636;28;19917;-59
2022/03/24 07:45:54;;;;;;;;;;;;;;;;;;4982513;28;19925;-60
2022/03/24 07:48:25;;;;;;;;;;;;;;;;;;4984377;28;19951;-60
2022/03/24 07:50:53;;;;;;;;;;;;;;;;;;4986362;28;19932;-60
2022/03/24 07:53:18;;;;;;;;;;;;;;;;;;4982701;28;20099;-61
2022/03/24 07:55:45;;;;;;;;;;;;;;;;;;4986085;28;19917;-61
2022/03/24 07:58:11;;;;;;;;;;;;;;;;;;4985575;28;21833;-61
2022/03/24 08:00:37;;;;;;;;;;;;;;;;;;4984548;28;19920;-61
2022/03/24 08:03:07;;;;;;;;;;;;;;;;;;4985277;28;19951;-61
2022/03/24 08:05:36;;;;;;;;;;;;;;;;;;4985482;28;20005;-61
2022/03/24 08:08:02;;;;;;;;;;;;;;;;;;4983390;28;19937;-61
2022/03/24 08:10:27;;;;;;;;;;;;;;;;;;4984084;28;19919;-61
2022/03/24 08:12:53;;;;;;;;;;;;;;;;;;4984308;28;19917;-61
2022/03/24 08:15:18;;;;;;;;;;;;;;;;;;4983704;28;19913;-61
2022/03/24 08:17:48;;;;;;;;;;;;;;;;;;4966710;28;20333;-61
2022/03/24 08:20:14;;;;;;;;;;;;;;;;;;4965816;28;19917;-61
2022/03/24 08:22:39;;;;;;;;;;;;;;;;;;4985433;28;19918;-61
2022/03/24 08:25:08;;;;;;;;;;;;;;;;;;4982693;28;19917;-62
2022/03/24 08:27:34;;;;;;;;;;;;;;;;;;4985376;28;20538;-61
2022/03/24 08:29:59;;;;;;;;;;;;;;;;;;4984082;28;20031;-62
2022/03/24 08:32:26;;;;;;;;;;;;;;;;;;4985416;28;19917;-62
2022/03/24 08:34:51;;;;;;;;;;;;;;;;;;4983300;28;19991;-62
2022/03/24 08:37:17;;;;;;;;;;;;;;;;;;4985250;28;19913;-62
2022/03/24 08:39:44;;;;;;;;;;;;;;;;;;4985473;28;19932;-61
2022/03/24 08:42:10;;;;;;;;;;;;;;;;;;4983397;28;19917;-62
2022/03/24 08:44:35;;;;;;;;;;;;;;;;;;4982675;28;19917;-62
2022/03/24 08:47:01;;;;;;;;;;;;;;;;;;4982581;28;19924;-62
2022/03/24 08:49:29;;;;;;;;;;;;;;;;;;4982075;28;20085;-62
2022/03/24 08:51:56;;;;;;;;;;;;;;;;;;4985532;28;20344;-62
2022/03/24 08:54:22;;;;;;;;;;;;;;;;;;4982862;28;19917;-62
2022/03/24 08:56:47;;;;;;;;;;;;;;;;;;4984395;28;20023;-62
2022/03/24 08:59:12;;;;;;;;;;;;;;;;;;4983985;28;19944;-63
2022/03/24 09:01:43;;;;;;;;;;;;;;;;;;4984900;28;19917;-62
2022/03/24 09:04:08;;;;;;;;;;;;;;;;;;4969250;28;19913;-62
2022/03/24 09:06:33;;;;;;;;;;;;;;;;;;4985105;28;20466;-62
2022/03/24 09:09:01;;;;;;;;;;;;;;;;;;4984934;28;20399;-62
2022/03/24 09:11:30;;;;;;;;;;;;;;;;;;4984207;28;19914;-62
2022/03/24 09:13:55;;;;;;;;;;;;;;;;;;4980792;28;20292;-62
2022/03/24 09:16:20;;;;;;;;;;;;;;;;;;4982102;28;19968;-62
2022/03/24 09:18:46;;;;;;;;;;;;;;;;;;4984564;28;21776;-62
2022/03/24 09:21:13;;;;;;;;;;;;;;;;;;4965791;28;19953;-62
2022/03/24 09:23:39;;;;;;;;;;;;;;;;;;4983361;28;19920;-62
2022/03/24 09:26:08;;;;;;;;;;;;;;;;;;4982320;28;19921;-62
2022/03/24 09:28:35;;;;;;;;;;;;;;;;;;4982711;28;19921;-62
2022/03/24 09:31:01;;;;;;;;;;;;;;;;;;4986080;28;19913;-62
2022/03/24 09:33:27;;;;;;;;;;;;;;;;;;4988318;28;20357;-62
2022/03/24 09:35:53;;;;;;;;;;;;;;;;;;4986762;28;19925;-62
2022/03/24 09:38:18;;;;;;;;;;;;;;;;;;4987162;28;19921;-62
2022/03/24 09:40:45;;;;;;;;;;;;;;;;;;4987845;28;19918;-63
2022/03/24 09:43:10;;;;;;;;;;;;;;;;;;4967003;28;19917;-63
2022/03/24 09:45:38;;;;;;;;;;;;;;;;;;4986651;28;20401;-63
2022/03/24 09:48:04;;;;;;;;;;;;;;;;;;4986529;28;19968;-62
2022/03/24 09:50:29;;;;;;;;;;;;;;;;;;4986180;28;19928;-62
2022/03/24 09:52:54;;;;;;;;;;;;;;;;;;4986476;28;20020;-63
2022/03/24 09:55:20;;;;;;;;;;;;;;;;;;4985311;28;19913;-63
2022/03/24 09:57:45;;;;;;;;;;;;;;;;;;4988736;28;19929;-63
2022/03/24 10:00:10;;;;;;;;;;;;;;;;;;4984677;28;20039;-63
2022/03/24 10:02:38;;;;;;;;;;;;;;;;;;4988123;28;19968;-63
2022/03/24 10:05:04;;;;;;;;;;;;;;;;;;4987560;28;20648;-63
2022/03/24 10:07:30;;;;;;;;;;;;;;;;;;4969406;28;19913;-63
2022/03/24 10:09:59;;;;;;;;;;;;;;;;;;4987971;28;19980;-63
2022/03/24 10:12:24;;;;;;;;;;;;;;;;;;4986641;28;19967;-63
2022/03/24 10:14:52;;;;;;;;;;;;;;;;;;4984961;28;19913;-63
2022/03/24 10:17:18;;;;;;;;;;;;;;;;;;4986423;28;21191;-63
2022/03/24 10:19:44;;;;;;;;;;;;;;;;;;4985931;28;19992;-62
2022/03/24 10:22:12;;;;;;;;;;;;;;;;;;4987451;28;20628;-62
2022/03/24 10:24:37;;;;;;;;;;;;;;;;;;4985197;28;20494;-63
2022/03/24 10:27:03;;;;;;;;;;;;;;;;;;4987316;28;19968;-65
2022/03/24 10:29:28;;;;;;;;;;;;;;;;;;4984334;28;19917;-62
2022/03/24 10:31:56;;;;;;;;;;;;;;;;;;4988239;28;20380;-62
2022/03/24 10:34:22;;;;;;;;;;;;;;;;;;4969293;28;19975;-62
2022/03/24 10:36:48;;;;;;;;;;;;;;;;;;4986230;28;19918;-63
2022/03/24 10:39:14;;;;;;;;;;;;;;;;;;4986693;28;19971;-62
2022/03/24 10:41:43;;;;;;;;;;;;;;;;;;4986829;28;20092;-63
2022/03/24 10:44:08;;;;;;;;;;;;;;;;;;4986324;28;19925;-63
2022/03/24 10:46:36;;;;;;;;;;;;;;;;;;4986740;28;20507;-63
2022/03/24 10:49:07;;;;;;;;;;;;;;;;;;4984945;28;19917;-62
2022/03/24 10:51:33;;;;;;;;;;;;;;;;;;4986304;28;20532;-62
2022/03/24 10:54:00;;;;;;;;;;;;;;;;;;4984450;28;19924;-63
2022/03/24 10:56:26;;;;;;;;;;;;;;;;;;4986868;28;20545;-62
2022/03/24 10:58:55;;;;;;;;;;;;;;;;;;4985763;28;19925;-61
2022/03/24 11:01:21;;;;;;;;;;;;;;;;;;4988563;28;19947;-61
2022/03/24 11:03:46;;;;;;;;;;;;;;;;;;4986681;28;19992;-62
2022/03/24 11:06:14;;;;;;;;;;;;;;;;;;4985796;28;19917;-62
2022/03/24 11:08:39;;;;;;;;;;;;;;;;;;4983402;28;20387;-62
2022/03/24 11:11:05;;;;;;;;;;;;;;;;;;4986308;28;19918;-63
2022/03/24 11:13:31;;;;;;;;;;;;;;;;;;4984836;28;20337;-62
2022/03/24 11:15:59;;;;;;;;;;;;;;;;;;4984592;28;19918;-62
2022/03/24 11:18:27;;;;;;;;;;;;;;;;;;4985099;28;19921;-62
2022/03/24 11:20:55;;;;;;;;;;;;;;;;;;4985359;28;20022;-62
2022/03/24 11:23:20;;;;;;;;;;;;;;;;;;4985950;28;19921;-62
2022/03/24 11:25:46;;;;;;;;;;;;;;;;;;4985967;28;20032;-61
2022/03/24 11:28:14;;;;;;;;;;;;;;;;;;4986516;28;19910;-62
2022/03/24 11:30:40;;;;;;;;;;;;;;;;;;4986759;28;20773;-65
2022/03/24 11:33:05;;;;;;;;;;;;;;;;;;4985137;28;19924;-63
2022/03/24 11:35:31;;;;;;;;;;;;;;;;;;4985697;28;19925;-62
2022/03/24 11:37:58;;;;;;;;;;;;;;;;;;4985381;28;20512;-62
2022/03/24 11:40:26;;;;;;;;;;;;;;;;;;4983812;28;19914;-63
2022/03/24 11:42:54;;;;;;;;;;;;;;;;;;4986478;28;19921;-61
2022/03/24 11:45:19;;;;;;;;;;;;;;;;;;4981195;28;19917;-60
2022/03/24 11:47:48;;;;;;;;;;;;;;;;;;4983328;28;19924;-61
2022/03/24 11:50:17;;;;;;;;;;;;;;;;;;4985612;28;19963;-61
2022/03/24 11:52:42;;;;;;;;;;;;;;;;;;4986105;28;19917;-61
2022/03/24 11:55:10;;;;;;;;;;;;;;;;;;4984492;28;20012;-61
2022/03/24 11:57:41;;;;;;;;;;;;;;;;;;4984610;28;19925;-62
2022/03/24 12:00:06;;;;;;;;;;;;;;;;;;4982528;28;20106;-61
2022/03/24 12:02:32;;;;;;;;;;;;;;;;;;4984852;28;19913;-62
2022/03/24 12:04:58;;;;;;;;;;;;;;;;;;4982722;28;19917;-62
2022/03/24 12:07:23;;;;;;;;;;;;;;;;;;4986058;28;20358;-61
2022/03/24 12:09:49;;;;;;;;;;;;;;;;;;4983403;28;19921;-62
2022/03/24 12:12:14;;;;;;;;;;;;;;;;;;4998607;28;19914;-61
2022/03/24 12:14:42;;;;;;;;;;;;;;;;;;4982385;28;19921;-62
2022/03/24 12:17:07;;;;;;;;;;;;;;;;;;4985614;28;19925;-61
2022/03/24 12:19:36;;;;;;;;;;;;;;;;;;4983933;28;19914;-61
2022/03/24 12:22:03;;;;;;;;;;;;;;;;;;4983378;28;19917;-62
2022/03/24 12:24:29;;;;;;;;;;;;;;;;;;4981357;28;20380;-61
2022/03/24 12:26:55;;;;;;;;;;;;;;;;;;4983793;28;19918;-61
2022/03/24 12:29:23;;;;;;;;;;;;;;;;;;4982371;28;20625;-61
2022/03/24 12:31:48;;;;;;;;;;;;;;;;;;4983326;28;19963;-61
2022/03/24 12:34:16;;;;;;;;;;;;;;;;;;4982693;28;19927;-61
2022/03/24 12:36:41;;;;;;;;;;;;;;;;;;4980790;28;19925;-62
2022/03/24 12:39:09;;;;;;;;;;;;;;;;;;4982706;28;19917;-62
2022/03/24 12:41:37;;;;;;;;;;;;;;;;;;4984718;28;19914;-62
2022/03/24 12:44:03;;;;;;;;;;;;;;;;;;4982607;28;20368;-61
2022/03/24 12:46:34;;;;;;;;;;;;;;;;;;4984962;28;19920;-62
2022/03/24 12:49:02;;;;;;;;;;;;;;;;;;4983195;28;20930;-61
2022/03/24 12:51:27;;;;;;;;;;;;;;;;;;4967284;28;19923;-62
2022/03/24 12:53:52;;;;;;;;;;;;;;;;;;4965505;28;19917;-62
2022/03/24 12:56:18;;;;;;;;;;;;;;;;;;4984659;28;21005;-61
2022/03/24 12:58:43;;;;;;;;;;;;;;;;;;4981477;28;19921;-61
2022/03/24 13:01:09;;;;;;;;;;;;;;;;;;4982091;28;19918;-61
2022/03/24 13:03:37;;;;;;;;;;;;;;;;;;4984104;28;20300;-61
2022/03/24 13:06:02;;;;;;;;;;;;;;;;;;4985076;28;19917;-62
2022/03/24 13:08:28;;;;;;;;;;;;;;;;;;4984240;28;19921;-63
2022/03/24 13:10:53;;;;;;;;;;;;;;;;;;4984569;28;19917;-61
2022/03/24 13:13:20;;;;;;;;;;;;;;;;;;4982739;28;20296;-62
2022/03/24 13:15:46;;;;;;;;;;;;;;;;;;4983983;28;19928;-62
2022/03/24 13:18:13;;;;;;;;;;;;;;;;;;4981460;28;19921;-61
2022/03/24 13:20:38;;;;;;;;;;;;;;;;;;4984454;28;19920;-61
2022/03/24 13:23:06;;;;;;;;;;;;;;;;;;4983858;28;19918;-61
2022/03/24 13:25:42;;;;;;;;;;;;;;;;;;4983075;28;20914;-61
2022/03/24 13:28:10;;;;;;;;;;;;;;;;;;4981393;28;19917;-62
2022/03/24 13:30:35;;;;;;;;;;;;;;;;;;4965536;28;20747;-61
2022/03/24 13:33:03;;;;;;;;;;;;;;;;;;4981982;28;19924;-61
2022/03/24 13:35:35;;;;;;;;;;;;;;;;;;4985117;28;20357;-62
2022/03/24 13:38:03;;;;;;;;;;;;;;;;;;4998854;28;19917;-62
2022/03/24 13:40:33;;;;;;;;;;;;;;;;;;4981541;28;19913;-61
2022/03/24 13:42:58;;;;;;;;;;;;;;;;;;4983539;28;19913;-61
2022/03/24 13:45:23;;;;;;;;;;;;;;;;;;4981963;28;19914;-62
2022/03/24 13:47:52;;;;;;;;;;;;;;;;;;4983572;28;20285;-61
2022/03/24 13:50:18;;;;;;;;;;;;;;;;;;4984423;28;19948;-62
2022/03/24 13:52:45;;;;;;;;;;;;;;;;;;4982922;28;19928;-61
2022/03/24 13:55:13;;;;;;;;;;;;;;;;;;4980413;28;19917;-61
2022/03/24 13:57:38;;;;;;;;;;;;;;;;;;4984676;28;20786;-62
2022/03/24 14:00:06;;;;;;;;;;;;;;;;;;4981444;28;19914;-64
2022/03/24 14:02:31;;;;;;;;;;;;;;;;;;4984334;28;19977;-61
2022/03/24 14:04:57;;;;;;;;;;;;;;;;;;4982215;28;19979;-61
2022/03/24 14:07:24;;;;;;;;;;;;;;;;;;4965878;28;20531;-61
2022/03/24 14:09:50;;;;;;;;;;;;;;;;;;4983344;28;20392;-62
2022/03/24 14:12:27;;;;;;;;;;;;;;;;;;4982637;28;19952;-61
2022/03/24 14:14:52;;;;;;;;;;;;;;;;;;4981213;28;19968;-62
2022/03/24 14:17:19;;;;;;;;;;;;;;;;;;4985644;28;19982;-62
2022/03/24 14:19:47;;;;;;;;;;;;;;;;;;4985296;28;19936;-61
2022/03/24 14:22:15;;;;;;;;;;;;;;;;;;4985429;28;19917;-60
2022/03/24 14:24:40;;;;;;;;;;;;;;;;;;4984979;28;20562;-60
2022/03/24 14:27:11;;;;;;;;;;;;;;;;;;4985559;28;19924;-62
2022/03/24 14:29:36;;;;;;;;;;;;;;;;;;4985069;28;19922;-62
2022/03/24 14:32:01;;;;;;;;;;;;;;;;;;4987537;28;19964;-62
2022/03/24 14:34:29;;;;;;;;;;;;;;;;;;4984470;28;19921;-62
2022/03/24 14:36:54;;;;;;;;;;;;;;;;;;4985650;28;19936;-62
2022/03/24 14:39:20;;;;;;;;;;;;;;;;;;4986533;28;20521;-62
2022/03/24 14:41:48;;;;;;;;;;;;;;;;;;4985192;28;19914;-61
2022/03/24 14:44:14;;;;;;;;;;;;;;;;;;4985231;28;19917;-62
2022/03/24 14:46:44;;;;;;;;;;;;;;;;;;4986595;28;19949;-61
2022/03/24 14:49:10;;;;;;;;;;;;;;;;;;4983579;28;20365;-61
2022/03/24 14:51:35;;;;;;;;;;;;;;;;;;4986547;28;19945;-61
2022/03/24 14:54:01;;;;;;;;;;;;;;;;;;4988188;28;20697;-61
2022/03/24 14:56:27;;;;;;;;;;;;;;;;;;4986213;28;19924;-61
2022/03/24 14:58:57;;;;;;;;;;;;;;;;;;4984114;28;20549;-61
2022/03/24 15:01:25;;;;;;;;;;;;;;;;;;4984333;28;19925;-61
2022/03/24 15:03:54;;;;;;;;;;;;;;;;;;4984114;28;20865;-61
2022/03/24 15:06:22;;;;;;;;;;;;;;;;;;4987393;28;19914;-62
2022/03/24 15:08:50;;;;;;;;;;;;;;;;;;4983059;28;19917;-61
2022/03/24 15:11:16;;;;;;;;;;;;;;;;;;4986339;28;19964;-62
2022/03/24 15:16:02;;;;;;;;;;;;;;;;;;4984085;28;19917;-61
2022/03/24 15:16:26;;;;;;;;;;;;;;;;;;4987234;28;19924;-62
2022/03/24 15:18:52;;;;;;;;;;;;;;;;;;4986706;28;19925;-62
2022/03/24 15:21:17;;;;;;;;;;;;;;;;;;4979199;28;19918;-61
2022/03/24 15:23:44;;;;;;;;;;;;;;;;;;4983849;28;19918;-61
2022/03/24 15:26:10;;;;;;;;;;;;;;;;;;4985234;28;20077;-61
2022/03/24 15:28:38;;;;;;;;;;;;;;;;;;4980656;28;19931;-61
2022/03/24 15:31:03;;;;;;;;;;;;;;;;;;4986158;28;19992;-58
2022/03/24 15:33:28;;;;;;;;;;;;;;;;;;4982869;28;20847;-61
2022/03/24 15:35:59;;;;;;;;;;;;;;;;;;4986783;28;21521;-61
2022/03/24 15:38:25;;;;;;;;;;;;;;;;;;4981864;28;19928;-60
2022/03/24 15:40:50;;;;;;;;;;;;;;;;;;4986466;28;19917;-60
2022/03/24 15:43:18;;;;;;;;;;;;;;;;;;4982770;28;19917;-60
2022/03/24 15:45:43;;;;;;;;;;;;;;;;;;4986645;28;19913;-60
2022/03/24 15:48:13;;;;;;;;;;;;;;;;;;4986208;28;19960;-61
2022/03/24 15:50:39;;;;;;;;;;;;;;;;;;4985213;28;19921;-62
2022/03/24 15:53:04;;;;;;;;;;;;;;;;;;4983057;28;19913;-60
2022/03/24 15:55:35;;;;;;;;;;;;;;;;;;4985197;28;19925;-60
2022/03/24 15:58:00;;;;;;;;;;;;;;;;;;4978489;28;20542;-61
2022/03/24 16:00:26;;;;;;;;;;;;;;;;;;4984372;28;19924;-62
2022/03/24 16:02:54;;;;;;;;;;;;;;;;;;4999948;28;19913;-60
2022/03/24 16:05:21;;;;;;;;;;;;;;;;;;4985917;28;20805;-62
2022/03/24 16:07:49;;;;;;;;;;;;;;;;;;4983606;28;19917;-62
2022/03/24 16:10:15;;;;;;;;;;;;;;;;;;4982690;28;20224;-61
2022/03/24 16:12:41;;;;;;;;;;;;;;;;;;4984784;28;19921;-61
2022/03/24 16:15:06;;;;;;;;;;;;;;;;;;4985164;28;20715;-61
2022/03/24 16:17:31;;;;;;;;;;;;;;;;;;4985941;28;20010;-61
2022/03/24 16:19:59;;;;;;;;;;;;;;;;;;4982705;28;19929;-61
2022/03/24 16:22:24;;;;;;;;;;;;;;;;;;4984830;28;19914;-62
2022/03/24 16:24:49;;;;;;;;;;;;;;;;;;4985088;28;20355;-60
2022/03/24 16:27:15;;;;;;;;;;;;;;;;;;4982747;28;19935;-61
2022/03/24 16:29:41;;;;;;;;;;;;;;;;;;4983430;28;19952;-60
2022/03/24 16:32:06;;;;;;;;;;;;;;;;;;4982123;28;19914;-61
2022/03/24 16:34:31;;;;;;;;;;;;;;;;;;4986541;28;19988;-61
2022/03/24 16:37:01;;;;;;;;;;;;;;;;;;4982188;28;19921;-60
2022/03/24 16:39:26;;;;;;;;;;;;;;;;;;4984099;28;19932;-61
2022/03/24 16:41:56;;;;;;;;;;;;;;;;;;4984763;28;20408;-62
2022/03/24 16:44:24;;;;;;;;;;;;;;;;;;4983009;28;20318;-61
2022/03/24 16:46:54;;;;;;;;;;;;;;;;;;4983212;28;19952;-60
2022/03/24 16:49:21;;;;;;;;;;;;;;;;;;4983735;28;20531;-61